Time;durP1;ratioP1;P1;durP2;ratioP2;P2;SDS_P1;SDS_P2;PMS_P1;PMS_P2;Temp;Humidity;BMP_temperature;BMP_pressure;BME280_temperature;BME280_humidity;BME280_pressure;Samples;Min_cycle;Max_cycle;Signal;HPM_P1;HPM_P2
2023/03/30 00:01:10;;;;;;;13.73;6.93;;;13.10;1.00;;;;;;5092068;28;20233;-71
2023/03/30 00:03:38;;;;;;;11.03;7.40;;;13.00;1.00;;;;;;5106449;28;20189;-71
2023/03/30 00:06:06;;;;;;;11.13;7.03;;;13.00;1.00;;;;;;5079959;28;20246;-71
2023/03/30 00:08:33;;;;;;;11.63;6.63;;;13.10;1.00;;;;;;5084285;28;20201;-71
2023/03/30 00:11:10;;;;;;;12.03;6.40;;;13.00;1.00;;;;;;5091206;28;20194;-71
2023/03/30 00:13:38;;;;;;;11.93;6.70;;;13.10;1.00;;;;;;5108123;28;20232;-71
2023/03/30 00:16:08;;;;;;;9.43;6.37;;;13.10;1.00;;;;;;5084872;28;20189;-75
2023/03/30 00:18:36;;;;;;;8.93;5.50;;;13.00;1.00;;;;;;5084461;28;20205;-72
2023/03/30 00:21:03;;;;;;;9.33;5.77;;;13.20;1.00;;;;;;5078895;28;20197;-72
2023/03/30 00:23:31;;;;;;;14.07;6.53;;;13.30;1.00;;;;;;5073079;28;20201;-72
2023/03/30 00:25:58;;;;;;;8.80;6.33;;;13.30;1.00;;;;;;5093069;28;20206;-72
2023/03/30 00:28:26;;;;;;;8.20;6.23;;;13.20;1.00;;;;;;5112859;28;20225;-71
2023/03/30 00:30:53;;;;;;;8.27;6.20;;;13.20;1.00;;;;;;5093180;28;20197;-71
2023/03/30 00:33:20;;;;;;;11.73;7.27;;;13.30;1.00;;;;;;5112087;28;20194;-75
2023/03/30 00:36:03;;;;;;;15.27;8.87;;;13.10;1.00;;;;;;5096374;28;20211;-72
2023/03/30 00:38:31;;;;;;;12.97;7.90;;;13.20;1.00;;;;;;5094164;28;20223;-73
2023/03/30 00:41:00;;;;;;;11.63;7.17;;;13.20;1.00;;;;;;5091527;28;20679;-72
2023/03/30 00:43:28;;;;;;;12.10;5.67;;;13.20;1.00;;;;;;5093448;28;20205;-73
2023/03/30 00:45:56;;;;;;;11.10;6.03;;;13.20;1.00;;;;;;5093246;28;20573;-72
2023/03/30 00:48:35;;;;;;;8.53;5.43;;;13.20;1.00;;;;;;5085270;28;20914;-72
2023/03/30 00:51:09;;;;;;;8.82;5.03;;;13.20;1.00;;;;;;5106230;28;20711;-70
2023/03/30 00:53:42;;;;;;;11.37;5.20;;;13.20;1.00;;;;;;5092986;28;20704;-72
2023/03/30 00:56:12;;;;;;;8.90;4.73;;;13.10;1.00;;;;;;5100599;28;20189;-73
2023/03/30 00:58:42;;;;;;;8.67;4.03;;;13.10;1.00;;;;;;5108343;28;20193;-72
2023/03/30 01:01:13;;;;;;;11.93;7.70;;;13.20;1.00;;;;;;5092002;28;20225;-72
2023/03/30 01:03:46;;;;;;;19.50;10.77;;;13.30;1.00;;;;;;5112114;28;20220;-73
2023/03/30 01:06:20;;;;;;;33.67;19.47;;;13.20;1.00;;;;;;5107266;28;20192;-72
2023/03/30 01:08:52;;;;;;;44.33;21.90;;;13.30;1.00;;;;;;5093468;28;20186;-74
2023/03/30 01:11:20;;;;;;;49.47;29.53;;;13.30;1.00;;;;;;5083038;28;20545;-74
2023/03/30 01:13:51;;;;;;;53.23;36.43;;;13.10;1.00;;;;;;5084321;28;20201;-72
2023/03/30 01:16:34;;;;;;;61.23;38.30;;;13.20;1.00;;;;;;5067794;28;20554;-73
2023/03/30 01:19:42;;;;;;;60.13;40.83;;;13.30;1.00;;;;;;5112187;28;20561;-73
2023/03/30 01:22:37;;;;;;;58.70;38.80;;;13.40;1.00;;;;;;5067934;28;20193;-73
2023/03/30 01:25:45;;;;;;;61.47;41.65;;;13.50;1.00;;;;;;5090582;28;20186;-72
2023/03/30 01:28:29;;;;;;;62.60;41.77;;;13.30;1.00;;;;;;5066414;28;20219;-74
2023/03/30 01:31:30;;;;;;;58.13;39.27;;;13.20;1.00;;;;;;5089940;28;20262;-72
2023/03/30 01:34:36;;;;;;;58.13;39.70;;;13.20;1.00;;;;;;5093158;28;20189;-71
2023/03/30 01:37:38;;;;;;;67.20;41.90;;;13.40;1.00;;;;;;5084529;28;20198;-72
2023/03/30 01:40:11;;;;;;;89.23;49.60;;;13.40;1.00;;;;;;5109939;28;20199;-71
2023/03/30 01:42:51;;;;;;;90.73;55.00;;;13.40;1.00;;;;;;5107722;28;20201;-71
2023/03/30 01:45:19;;;;;;;83.07;51.87;;;13.50;1.00;;;;;;5093600;28;20194;-72
2023/03/30 01:48:00;;;;;;;59.67;37.40;;;13.30;1.00;;;;;;5110758;28;20270;-71
2023/03/30 01:50:41;;;;;;;47.60;31.67;;;13.50;1.00;;;;;;5101129;28;20198;-72
2023/03/30 01:53:25;;;;;;;41.60;23.67;;;13.40;1.00;;;;;;5083640;28;20266;-72
2023/03/30 01:56:18;;;;;;;28.77;17.53;;;13.30;1.00;;;;;;5100565;28;20215;-72
2023/03/30 01:58:45;;;;;;;21.70;13.13;;;13.50;1.00;;;;;;5085501;28;20205;-72
2023/03/30 02:01:16;;;;;;;14.85;10.55;;;13.60;1.00;;;;;;5111617;28;20229;-72
2023/03/30 02:03:48;;;;;;;17.33;8.20;;;13.60;1.00;;;;;;5080376;28;20251;-73
2023/03/30 02:06:26;;;;;;;13.43;7.20;;;13.80;1.00;;;;;;5107996;28;20189;-73
2023/03/30 02:08:58;;;;;;;11.20;6.40;;;13.80;1.00;;;;;;5102620;28;20876;-72
2023/03/30 02:11:28;;;;;;;15.10;7.53;;;13.80;1.00;;;;;;5099682;28;20198;-74
2023/03/30 02:13:57;;;;;;;11.35;7.30;;;14.00;1.00;;;;;;5092803;28;20193;-73
2023/03/30 02:16:40;;;;;;;15.05;9.95;;;14.00;1.00;;;;;;5090082;28;20198;-71
2023/03/30 02:19:08;;;;;;;18.05;10.82;;;14.20;1.00;;;;;;5098605;28;20266;-71
2023/03/30 02:21:35;;;;;;;13.48;10.13;;;14.30;1.00;;;;;;5103085;28;20192;-71
2023/03/30 02:24:06;;;;;;;18.02;10.52;;;14.50;1.00;;;;;;5088686;28;20681;-70
2023/03/30 02:26:34;;;;;;;14.70;9.65;;;14.50;1.00;;;;;;5105372;28;20194;-70
2023/03/30 02:29:02;;;;;;;12.65;8.90;;;14.50;1.00;;;;;;5089804;28;20198;-71
2023/03/30 02:31:31;;;;;;;11.32;8.05;;;14.70;1.00;;;;;;5105549;28;20186;-72
2023/03/30 02:34:27;;;;;;;15.15;6.45;;;14.60;1.00;;;;;;5088503;28;20198;-71
2023/03/30 02:37:03;;;;;;;9.02;4.63;;;14.60;1.00;;;;;;5107095;28;20306;-71
2023/03/30 02:40:00;;;;;;;8.18;3.92;;;14.50;1.00;;;;;;5088445;28;20615;-73
2023/03/30 02:42:45;;;;;;;6.55;3.10;;;14.60;1.00;;;;;;5079457;28;20635;-68
2023/03/30 02:45:50;;;;;;;6.13;2.83;;;14.50;1.00;;;;;;5104769;28;20192;-68
2023/03/30 02:48:22;;;;;;;6.85;2.33;;;14.60;1.00;;;;;;5071208;28;20220;-68
2023/03/30 02:51:21;;;;;;;6.10;2.15;;;14.70;1.00;;;;;;5086004;28;20221;-67
2023/03/30 02:54:24;;;;;;;6.93;2.28;;;14.80;1.00;;;;;;5089119;28;20210;-68
2023/03/30 02:57:43;;;;;;;7.28;2.83;;;14.80;1.00;;;;;;5091734;28;20657;-68
2023/03/30 03:00:59;;;;;;;11.98;5.57;;;14.90;1.00;;;;;;5103722;28;20245;-71
2023/03/30 03:03:47;;;;;;;18.88;8.63;;;14.80;1.00;;;;;;5089172;28;20676;-70
2023/03/30 03:06:16;;;;;;;13.38;9.00;;;14.80;1.00;;;;;;5080469;28;20201;-70
2023/03/30 03:08:48;;;;;;;15.20;10.07;;;14.80;1.00;;;;;;5085931;28;20201;-71
2023/03/30 03:11:22;;;;;;;15.43;9.52;;;14.90;1.00;;;;;;5086684;28;20205;-71
2023/03/30 03:13:49;;;;;;;18.98;10.18;;;15.00;1.00;;;;;;5086429;28;20714;-72
2023/03/30 03:16:16;;;;;;;14.10;9.63;;;15.00;1.00;;;;;;5083110;28;20193;-75
2023/03/30 03:19:02;;;;;;;17.60;10.30;;;15.00;1.00;;;;;;5071599;28;20213;-74
2023/03/30 03:21:29;;;;;;;17.13;9.73;;;14.90;1.00;;;;;;5106431;28;20204;-71
2023/03/30 03:23:58;;;;;;;15.27;10.35;;;14.80;1.00;;;;;;5068503;28;20205;-73
2023/03/30 03:26:38;;;;;;;15.82;8.32;;;14.80;1.00;;;;;;5107223;28;20281;-73
2023/03/30 03:29:05;;;;;;;16.05;8.63;;;14.80;1.00;;;;;;5091443;28;20551;-73
2023/03/30 03:31:32;;;;;;;14.40;7.70;;;14.80;1.00;;;;;;5089605;28;20254;-73
2023/03/30 03:34:00;;;;;;;9.80;6.03;;;14.80;1.00;;;;;;5090241;28;20228;-73
2023/03/30 03:36:51;;;;;;;8.70;5.07;;;14.70;1.00;;;;;;5095799;28;20688;-74
2023/03/30 03:39:19;;;;;;;11.32;4.97;;;14.90;1.00;;;;;;5084095;28;20202;-74
2023/03/30 03:41:47;;;;;;;9.98;4.05;;;14.90;1.00;;;;;;5090388;28;20181;-74
2023/03/30 03:44:15;;;;;;;8.18;3.40;;;14.90;1.00;;;;;;5091305;28;20722;-81
2023/03/30 03:46:42;;;;;;;6.22;2.78;;;15.00;1.00;;;;;;5075160;28;20197;-73
2023/03/30 03:49:09;;;;;;;7.57;2.78;;;15.10;1.00;;;;;;5098303;28;20875;-73
2023/03/30 03:51:37;;;;;;;4.80;2.17;;;15.20;1.00;;;;;;5097048;28;20573;-75
2023/03/30 03:54:04;;;;;;;10.00;2.45;;;15.10;1.00;;;;;;5110402;28;20594;-74
2023/03/30 03:56:32;;;;;;;6.43;2.30;;;14.90;1.00;;;;;;5091090;28;20193;-73
2023/03/30 03:59:01;;;;;;;12.68;3.78;;;14.90;1.00;;;;;;5093264;28;20209;-73
2023/03/30 04:01:29;;;;;;;7.47;3.45;;;14.80;1.00;;;;;;5082952;28;20241;-77
2023/03/30 04:03:57;;;;;;;11.75;3.60;;;14.90;1.00;;;;;;5091555;28;20350;-73
2023/03/30 04:06:26;;;;;;;7.63;2.80;;;14.90;1.00;;;;;;5110423;28;20190;-74
2023/03/30 04:08:53;;;;;;;5.88;2.28;;;15.00;1.00;;;;;;5104654;28;20254;-74
2023/03/30 04:11:27;;;;;;;7.18;1.98;;;15.10;1.00;;;;;;5102287;28;20193;-72
2023/03/30 04:14:10;;;;;;;5.60;2.28;;;15.10;1.00;;;;;;5085705;28;21057;-83
2023/03/30 04:17:13;;;;;;;5.05;2.38;;;15.00;1.00;;;;;;5090044;28;20201;-72
2023/03/30 04:20:03;;;;;;;5.15;1.80;;;15.00;1.00;;;;;;5108635;28;20212;-72
2023/03/30 04:23:08;;;;;;;5.50;2.60;;;14.90;1.00;;;;;;5094550;28;20197;-71
2023/03/30 04:26:03;;;;;;;6.45;2.22;;;14.70;1.00;;;;;;5092349;28;20209;-85
2023/03/30 04:28:45;;;;;;;5.40;2.17;;;14.60;1.00;;;;;;5107829;28;20642;-73
2023/03/30 04:31:33;;;;;;;5.07;1.88;;;14.60;1.00;;;;;;5107948;28;20368;-72
2023/03/30 04:34:01;;;;;;;6.70;2.00;;;14.60;1.00;;;;;;5083983;28;20217;-70
2023/03/30 04:36:49;;;;;;;4.90;1.90;;;14.60;1.00;;;;;;5086772;28;22390;-70
2023/03/30 04:39:31;;;;;;;7.47;2.10;;;14.90;1.00;;;;;;5098479;28;20197;-70
2023/03/30 04:42:12;;;;;;;3.28;1.65;;;15.00;1.00;;;;;;5093987;28;20281;-70
2023/03/30 04:44:58;;;;;;;8.45;2.20;;;14.80;1.00;;;;;;5110797;28;20225;-71
2023/03/30 04:47:47;;;;;;;7.85;1.90;;;14.80;1.00;;;;;;5091509;28;20213;-69
2023/03/30 04:50:45;;;;;;;10.30;1.98;;;14.80;1.00;;;;;;5094827;28;20313;-70
2023/03/30 04:53:31;;;;;;;6.53;2.00;;;14.90;1.00;;;;;;5110237;28;20208;-74
2023/03/30 04:56:17;;;;;;;7.65;2.67;;;14.90;1.00;;;;;;5111046;28;20242;-71
2023/03/30 04:59:07;;;;;;;7.00;2.60;;;14.70;1.00;;;;;;5066269;28;20219;-70
2023/03/30 05:01:54;;;;;;;11.70;2.10;;;14.70;1.00;;;;;;5082101;28;20221;-70
2023/03/30 05:04:40;;;;;;;7.65;1.90;;;14.80;1.00;;;;;;5065968;28;20200;-71
2023/03/30 05:07:24;;;;;;;6.75;1.70;;;15.00;1.00;;;;;;5078368;28;20202;-70
2023/03/30 05:10:14;;;;;;;7.55;2.53;;;15.00;1.00;;;;;;5093901;28;20231;-72
2023/03/30 05:13:01;;;;;;;4.18;1.92;;;14.90;1.00;;;;;;5089754;28;20307;-72
2023/03/30 05:15:53;;;;;;;3.83;1.60;;;14.90;1.00;;;;;;5108356;28;20196;-72
2023/03/30 05:18:39;;;;;;;10.60;2.60;;;14.70;1.00;;;;;;5109035;28;20746;-71
2023/03/30 05:21:06;;;;;;;7.30;3.10;;;14.80;1.00;;;;;;5102712;28;20545;-72
2023/03/30 05:23:59;;;;;;;6.72;2.95;;;14.80;1.00;;;;;;5075451;28;20202;-70
2023/03/30 05:26:56;;;;;;;7.93;5.82;;;14.60;1.00;;;;;;5089249;28;20233;-71
2023/03/30 05:29:41;;;;;;;6.05;2.97;;;14.70;1.00;;;;;;5107140;28;20205;-72
2023/03/30 05:32:31;;;;;;;8.02;4.78;;;14.70;1.00;;;;;;5078089;28;20225;-72
2023/03/30 05:35:18;;;;;;;4.22;2.25;;;14.70;1.00;;;;;;5094056;28;20205;-70
2023/03/30 05:37:53;;;;;;;6.72;2.90;;;14.70;1.00;;;;;;5107797;28;20204;-70
2023/03/30 05:40:20;;;;;;;6.25;2.90;;;14.70;1.00;;;;;;5108004;28;20212;-71
2023/03/30 05:43:07;;;;;;;14.95;10.43;;;14.80;1.00;;;;;;5059023;28;20221;-72
2023/03/30 05:45:54;;;;;;;11.85;4.90;;;14.80;1.00;;;;;;5105869;28;20212;-72
2023/03/30 05:48:31;;;;;;;8.60;5.28;;;14.80;1.00;;;;;;5089370;28;20363;-72
2023/03/30 05:51:06;;;;;;;9.95;5.35;;;14.80;1.00;;;;;;5081619;28;20205;-71
2023/03/30 05:53:47;;;;;;;12.55;3.13;;;14.80;1.00;;;;;;5081662;28;20537;-71
2023/03/30 05:56:41;;;;;;;6.85;3.25;;;14.80;1.00;;;;;;5105218;28;20210;-72
2023/03/30 05:59:20;;;;;;;7.85;2.42;;;14.90;1.00;;;;;;5090861;28;20203;-71
2023/03/30 06:02:07;;;;;;;6.88;3.47;;;14.90;1.00;;;;;;5107801;28;20426;-72
2023/03/30 06:04:38;;;;;;;6.93;2.67;;;14.90;1.00;;;;;;5084438;28;20201;-72
2023/03/30 06:07:06;;;;;;;4.13;2.10;;;14.80;1.00;;;;;;5091301;28;20196;-70
2023/03/30 06:09:34;;;;;;;8.57;2.13;;;15.00;1.00;;;;;;5091748;28;20660;-73
2023/03/30 06:12:07;;;;;;;7.07;2.75;;;15.00;1.00;;;;;;5097948;28;20201;-70
2023/03/30 06:14:35;;;;;;;8.05;3.20;;;14.90;1.00;;;;;;5090887;28;20225;-72
2023/03/30 06:17:26;;;;;;;7.22;2.90;;;14.80;1.00;;;;;;5091098;28;20208;-70
2023/03/30 06:19:53;;;;;;;9.57;2.90;;;14.80;1.00;;;;;;5091206;28;20206;-70
2023/03/30 06:22:20;;;;;;;6.72;3.42;;;14.70;1.00;;;;;;5087470;28;20213;-72
2023/03/30 06:25:09;;;;;;;7.72;3.35;;;14.70;1.00;;;;;;5087773;28;20242;-70
2023/03/30 06:27:36;;;;;;;13.38;3.22;;;14.90;1.00;;;;;;5083405;28;20567;-71
2023/03/30 06:30:04;;;;;;;7.57;3.42;;;14.90;1.00;;;;;;5090374;28;20204;-71
2023/03/30 06:32:31;;;;;;;9.88;3.30;;;15.00;1.00;;;;;;5089987;28;20197;-72
2023/03/30 06:35:14;;;;;;;7.28;2.88;;;15.00;1.00;;;;;;5110029;28;20190;-72
2023/03/30 06:37:42;;;;;;;7.30;2.85;;;15.00;1.00;;;;;;5080474;28;20565;-72
2023/03/30 06:40:12;;;;;;;5.95;3.75;;;15.00;1.00;;;;;;5091930;28;20269;-72
2023/03/30 06:42:45;;;;;;;9.40;3.00;;;14.90;1.00;;;;;;5086886;28;20657;-72
2023/03/30 06:45:20;;;;;;;8.38;3.30;;;14.90;1.00;;;;;;5103639;28;20224;-70
2023/03/30 06:47:47;;;;;;;10.50;3.13;;;15.10;1.00;;;;;;5089515;28;20340;-71
2023/03/30 06:50:15;;;;;;;9.80;3.50;;;15.10;1.00;;;;;;5089908;28;20208;-73
2023/03/30 06:52:41;;;;;;;8.07;3.13;;;15.10;1.00;;;;;;5108564;28;20254;-70
2023/03/30 06:55:09;;;;;;;8.77;4.15;;;15.30;1.00;;;;;;5090619;28;20197;-72
2023/03/30 06:57:36;;;;;;;5.10;2.58;;;15.30;1.00;;;;;;5110963;28;20208;-70
2023/03/30 07:00:13;;;;;;;9.20;3.33;;;15.30;1.00;;;;;;5112791;28;20672;-72
2023/03/30 07:02:41;;;;;;;6.90;2.92;;;15.30;1.00;;;;;;5105913;28;20227;-70
2023/03/30 07:05:14;;;;;;;4.60;2.40;;;15.20;1.00;;;;;;5106459;28;20616;-71
2023/03/30 07:07:56;;;;;;;7.22;3.00;;;15.20;1.00;;;;;;5109047;28;20193;-72
2023/03/30 07:10:24;;;;;;;6.13;3.60;;;15.20;1.00;;;;;;5111638;28;20574;-72
2023/03/30 07:12:52;;;;;;;11.55;4.70;;;15.20;1.00;;;;;;5079769;28;20680;-70
2023/03/30 07:15:21;;;;;;;8.25;2.72;;;15.30;1.00;;;;;;5089498;28;20205;-70
2023/03/30 07:17:48;;;;;;;4.90;2.35;;;15.40;1.00;;;;;;5090304;28;20221;-70
2023/03/30 07:20:16;;;;;;;5.95;2.53;;;15.50;1.00;;;;;;5110484;28;20276;-70
2023/03/30 07:22:57;;;;;;;7.38;2.80;;;15.60;1.00;;;;;;5086042;28;20637;-71
2023/03/30 07:25:25;;;;;;;6.30;2.50;;;15.60;1.00;;;;;;5094323;28;20197;-70
2023/03/30 07:27:53;;;;;;;6.47;2.35;;;15.70;1.00;;;;;;5088516;28;20680;-71
2023/03/30 07:30:21;;;;;;;7.22;2.00;;;15.70;1.00;;;;;;5069356;28;20201;-71
2023/03/30 07:32:56;;;;;;;3.78;2.15;;;15.70;1.00;;;;;;5083940;28;20665;-70
2023/03/30 07:35:25;;;;;;;3.97;1.80;;;15.70;1.00;;;;;;5101786;28;20623;-71
2023/03/30 07:37:52;;;;;;;7.85;1.85;;;15.80;1.00;;;;;;5082143;28;20236;-71
2023/03/30 07:40:32;;;;;;;4.78;2.00;;;15.80;1.00;;;;;;5081721;28;20220;-71
2023/03/30 07:43:01;;;;;;;6.60;2.15;;;15.90;1.00;;;;;;5088265;28;20200;-71
2023/03/30 07:45:28;;;;;;;5.70;2.60;;;15.90;1.00;;;;;;5089997;28;20193;-74
2023/03/30 07:47:55;;;;;;;4.50;2.13;;;15.90;1.00;;;;;;5065061;28;20225;-70
2023/03/30 07:50:24;;;;;;;4.22;1.80;;;16.10;1.00;;;;;;5100923;28;20237;-71
2023/03/30 07:52:53;;;;;;;12.40;2.33;;;16.50;1.00;;;;;;5088414;28;20193;-70
2023/03/30 07:55:20;;;;;;;6.43;2.67;;;16.90;1.00;;;;;;5108297;28;20200;-73
2023/03/30 07:57:54;;;;;;;4.97;2.63;;;17.70;1.00;;;;;;5072352;28;20204;-71
2023/03/30 08:00:23;;;;;;;9.25;2.33;;;18.00;1.00;;;;;;5083920;28;20578;-72
2023/03/30 08:03:25;;;;;;;7.28;2.45;;;17.60;1.00;;;;;;5082688;28;20300;-72
2023/03/30 08:06:03;;;;;;;3.50;1.92;;;17.40;1.00;;;;;;5085777;28;20194;-72
2023/03/30 08:08:37;;;;;;;7.97;2.25;;;17.30;1.00;;;;;;5108079;28;20209;-70
2023/03/30 08:11:05;;;;;;;5.65;2.00;;;16.80;1.00;;;;;;5084494;28;20278;-71
2023/03/30 08:13:32;;;;;;;4.45;2.00;;;16.70;1.00;;;;;;5063090;28;20583;-72
2023/03/30 08:16:00;;;;;;;5.50;2.05;;;16.70;1.00;;;;;;5086667;28;20210;-70
2023/03/30 08:18:27;;;;;;;5.38;2.28;;;16.50;1.00;;;;;;5073469;28;20702;-71
2023/03/30 08:20:55;;;;;;;5.30;1.83;;;16.60;1.00;;;;;;5107816;28;20193;-71
2023/03/30 08:23:22;;;;;;;8.88;2.10;;;16.60;1.00;;;;;;5083309;28;20686;-72
2023/03/30 08:25:52;;;;;;;5.88;1.80;;;16.30;1.00;;;;;;5069888;28;20296;-70
2023/03/30 08:28:20;;;;;;;3.67;1.80;;;16.20;1.00;;;;;;5090267;28;20205;-70
2023/03/30 08:30:47;;;;;;;6.00;2.10;;;16.30;1.00;;;;;;5107869;28;20202;-71
2023/03/30 08:33:14;;;;;;;4.53;1.77;;;16.50;1.00;;;;;;5092619;28;20206;-71
2023/03/30 08:35:46;;;;;;;3.60;1.60;;;17.60;1.00;;;;;;5090616;28;20201;-72
2023/03/30 08:38:17;;;;;;;8.65;2.05;;;17.40;1.00;;;;;;5080776;28;20626;-71
2023/03/30 08:40:47;;;;;;;5.15;1.80;;;18.20;1.00;;;;;;5108656;28;20276;-74
2023/03/30 08:43:13;;;;;;;3.30;2.10;;;20.20;1.00;;;;;;5105834;28;20190;-71
2023/03/30 08:45:42;;;;;;;4.88;2.30;;;18.20;1.00;;;;;;5091147;28;20209;-70
2023/03/30 08:48:23;;;;;;;3.95;1.65;;;17.20;1.00;;;;;;5107804;28;20214;-70
2023/03/30 08:51:04;;;;;;;5.40;1.80;;;16.00;1.00;;;;;;5107997;28;20193;-70
2023/03/30 08:53:33;;;;;;;3.63;1.95;;;15.40;1.00;;;;;;5109736;28;20228;-71
2023/03/30 08:56:13;;;;;;;3.40;1.98;;;15.10;1.00;;;;;;5110530;28;20193;-71
2023/03/30 08:58:47;;;;;;;6.47;2.20;;;15.20;1.00;;;;;;5108356;28;20251;-71
2023/03/30 09:01:27;;;;;;;8.43;2.35;;;15.60;1.00;;;;;;5107794;28;20793;-70
2023/03/30 09:04:22;;;;;;;3.70;1.60;;;17.80;1.00;;;;;;5107897;28;20691;-70
2023/03/30 09:07:04;;;;;;;6.47;1.85;;;18.20;1.00;;;;;;5108811;28;20289;-70
2023/03/30 09:09:39;;;;;;;4.05;2.45;;;17.90;1.00;;;;;;5088642;28;20202;-71
2023/03/30 09:12:36;;;;;;;8.73;2.65;;;17.30;1.00;;;;;;5089193;28;20713;-72
2023/03/30 09:15:34;;;;;;;6.22;1.85;;;17.30;1.00;;;;;;5107517;28;20326;-70
2023/03/30 09:18:29;;;;;;;5.35;1.88;;;16.60;1.00;;;;;;5109215;28;20198;-73
2023/03/30 09:20:59;;;;;;;7.65;2.17;;;16.10;1.00;;;;;;5107884;28;20674;-70
2023/03/30 09:23:28;;;;;;;7.53;2.80;;;15.60;1.00;;;;;;5088192;28;20220;-71
2023/03/30 09:26:28;;;;;;;5.82;2.80;;;15.60;1.00;;;;;;5109041;28;20614;-70
2023/03/30 09:29:07;;;;;;;5.60;2.65;;;15.30;1.00;;;;;;5044088;28;20602;-70
2023/03/30 09:32:09;;;;;;;5.95;2.30;;;15.30;1.00;;;;;;5090491;28;20240;-73
2023/03/30 09:34:43;;;;;;;7.80;3.53;;;15.00;1.00;;;;;;5078266;28;20239;-69
2023/03/30 09:37:21;;;;;;;5.00;2.40;;;14.90;1.00;;;;;;5109809;28;20224;-70
2023/03/30 09:40:24;;;;;;;9.10;2.60;;;14.80;1.00;;;;;;5107396;28;20204;-71
2023/03/30 09:43:13;;;;;;;5.93;1.92;;;15.20;1.00;;;;;;5097855;28;20205;-70
2023/03/30 09:45:43;;;;;;;5.88;2.40;;;15.30;1.00;;;;;;5107638;28;20208;-70
2023/03/30 09:48:15;;;;;;;8.15;2.85;;;15.30;1.00;;;;;;5081761;28;20226;-72
2023/03/30 09:50:45;;;;;;;9.48;3.00;;;15.30;1.00;;;;;;5099289;28;20193;-70
2023/03/30 09:53:25;;;;;;;8.30;2.35;;;15.20;1.00;;;;;;5090699;28;20206;-74
2023/03/30 09:55:59;;;;;;;6.78;2.30;;;15.10;1.00;;;;;;5108248;28;20224;-72
2023/03/30 09:58:29;;;;;;;4.90;2.40;;;15.30;1.00;;;;;;5088845;28;20197;-73
2023/03/30 10:01:05;;;;;;;7.57;3.92;;;15.40;1.00;;;;;;5088872;28;20232;-72
2023/03/30 10:03:34;;;;;;;9.18;3.47;;;15.50;1.00;;;;;;5082025;28;20209;-72
2023/03/30 10:06:08;;;;;;;8.75;3.30;;;15.30;1.00;;;;;;5100718;28;20448;-72
2023/03/30 10:08:42;;;;;;;9.88;2.95;;;15.30;1.00;;;;;;5081261;28;20719;-71
2023/03/30 10:11:10;;;;;;;7.95;2.83;;;15.30;1.00;;;;;;5100252;28;20262;-72
2023/03/30 10:13:41;;;;;;;8.70;3.15;;;15.30;1.00;;;;;;5091889;28;20254;-72
2023/03/30 10:16:25;;;;;;;9.73;3.70;;;15.40;1.00;;;;;;5086442;28;20844;-72
2023/03/30 10:19:03;;;;;;;7.47;2.78;;;15.10;1.00;;;;;;5096298;28;20216;-71
2023/03/30 10:21:37;;;;;;;11.63;3.38;;;15.30;1.00;;;;;;5076072;28;20198;-73
2023/03/30 10:24:13;;;;;;;9.82;3.33;;;15.20;1.00;;;;;;5094423;28;20224;-73
2023/03/30 10:26:45;;;;;;;7.07;4.43;;;14.90;1.00;;;;;;5101782;28;20193;-75
2023/03/30 10:29:17;;;;;;;16.40;4.25;;;14.80;1.00;;;;;;5106320;28;20189;-73
2023/03/30 10:31:47;;;;;;;9.77;2.67;;;14.80;1.00;;;;;;5107417;28;20185;-74
2023/03/30 10:34:17;;;;;;;8.82;3.13;;;14.70;1.00;;;;;;5102614;28;20245;-73
2023/03/30 10:36:46;;;;;;;5.88;3.22;;;15.20;1.00;;;;;;5109899;28;20217;-73
2023/03/30 10:39:32;;;;;;;6.25;2.70;;;15.10;1.00;;;;;;5102927;28;20215;-73
2023/03/30 10:42:03;;;;;;;12.23;3.85;;;15.10;1.00;;;;;;5086000;28;20191;-72
2023/03/30 10:44:43;;;;;;;9.80;4.07;;;15.60;1.00;;;;;;5105544;28;20197;-72
2023/03/30 10:47:10;;;;;;;8.80;3.08;;;17.90;1.00;;;;;;5105587;28;20768;-72
2023/03/30 10:49:46;;;;;;;12.60;3.30;;;18.30;1.00;;;;;;5109124;28;20197;-72
2023/03/30 10:52:25;;;;;;;8.57;2.55;;;18.80;1.00;;;;;;5105551;28;20715;-72
2023/03/30 10:55:21;;;;;;;8.45;2.65;;;18.70;1.00;;;;;;5097251;28;20315;-73
2023/03/30 10:58:26;;;;;;;6.40;2.40;;;17.60;1.00;;;;;;5110760;28;20226;-75
2023/03/30 11:01:05;;;;;;;8.70;2.75;;;16.70;1.00;;;;;;5080254;28;20253;-73
2023/03/30 11:03:32;;;;;;;8.82;3.05;;;16.50;1.00;;;;;;5090875;28;20292;-72
2023/03/30 11:06:22;;;;;;;8.88;3.10;;;16.20;1.00;;;;;;5089560;28;20984;-72
2023/03/30 11:08:51;;;;;;;5.90;2.63;;;15.60;1.00;;;;;;5110429;28;20648;-79
2023/03/30 11:11:22;;;;;;;10.60;2.30;;;15.20;1.00;;;;;;5101947;28;20201;-74
2023/03/30 11:14:00;;;;;;;8.30;2.78;;;15.00;1.00;;;;;;5109296;28;20185;-74
2023/03/30 11:16:46;;;;;;;11.82;2.88;;;14.70;1.00;;;;;;5089723;28;20239;-73
2023/03/30 11:19:20;;;;;;;9.13;2.10;;;14.60;1.00;;;;;;5083540;28;20677;-76
2023/03/30 11:22:03;;;;;;;8.63;3.20;;;14.50;1.00;;;;;;5098578;28;20729;-73
2023/03/30 11:24:33;;;;;;;5.85;2.33;;;14.60;1.00;;;;;;5105269;28;20227;-75
2023/03/30 11:27:12;;;;;;;11.93;2.78;;;14.80;1.00;;;;;;5101781;28;20201;-72
2023/03/30 11:29:52;;;;;;;5.60;1.88;;;16.20;1.00;;;;;;5105952;28;20255;-72
2023/03/30 11:32:42;;;;;;;7.72;2.58;;;17.20;1.00;;;;;;5105111;28;20198;-71
2023/03/30 11:35:31;;;;;;;7.95;2.72;;;18.10;1.00;;;;;;5105461;28;20210;-73
2023/03/30 11:38:19;;;;;;;8.88;2.92;;;17.70;1.00;;;;;;5090725;28;20193;-71
2023/03/30 11:41:07;;;;;;;9.90;2.53;;;18.70;1.00;;;;;;5105252;28;20224;-72
2023/03/30 11:43:34;;;;;;;11.70;3.90;;;18.60;1.00;;;;;;5101788;28;20228;-73
2023/03/30 11:46:08;;;;;;;13.05;4.00;;;18.50;1.00;;;;;;5089722;28;20198;-71
2023/03/30 11:48:47;;;;;;;10.38;3.65;;;19.00;1.00;;;;;;5107101;28;20212;-72
2023/03/30 11:51:43;;;;;;;13.63;3.53;;;19.80;1.00;;;;;;5081222;28;20197;-72
2023/03/30 11:54:37;;;;;;;10.05;2.83;;;20.00;1.00;;;;;;5091659;28;20206;-72
2023/03/30 11:57:23;;;;;;;7.28;2.55;;;19.80;1.00;;;;;;5108706;28;20182;-73
2023/03/30 12:00:24;;;;;;;12.50;3.38;;;21.00;1.00;;;;;;5108283;28;20193;-72
2023/03/30 12:03:01;;;;;;;12.35;3.90;;;20.70;1.00;;;;;;5072063;28;20800;-73
2023/03/30 12:05:37;;;;;;;13.05;4.10;;;19.70;1.00;;;;;;5058186;28;20758;-72
2023/03/30 12:08:22;;;;;;;7.68;3.33;;;18.50;1.00;;;;;;5059544;28;20195;-73
2023/03/30 12:11:14;;;;;;;9.70;3.78;;;17.70;1.00;;;;;;5055902;28;20203;-72
2023/03/30 12:13:41;;;;;;;7.80;2.50;;;17.30;1.00;;;;;;5044633;28;20305;-73
2023/03/30 12:16:30;;;;;;;11.10;3.55;;;18.20;1.00;;;;;;5058166;28;20195;-72
2023/03/30 12:19:12;;;;;;;8.65;3.28;;;18.60;1.00;;;;;;5059336;28;20194;-74
2023/03/30 12:21:56;;;;;;;10.13;3.53;;;18.20;1.00;;;;;;5058519;28;20301;-74
2023/03/30 12:24:32;;;;;;;7.15;2.80;;;17.90;1.00;;;;;;5058132;28;20302;-73
2023/03/30 12:26:59;;;;;;;10.80;4.03;;;18.30;1.00;;;;;;5058711;28;20240;-73
2023/03/30 12:29:47;;;;;;;12.00;2.80;;;18.40;1.00;;;;;;5057362;28;20620;-73
2023/03/30 12:32:28;;;;;;;9.05;2.90;;;18.20;1.00;;;;;;5058132;28;20234;-74
2023/03/30 12:34:56;;;;;;;8.15;2.80;;;17.60;1.00;;;;;;5074103;28;20215;-73
2023/03/30 12:37:32;;;;;;;12.07;3.42;;;17.40;1.00;;;;;;5058710;28;20622;-73
2023/03/30 12:40:07;;;;;;;8.35;3.55;;;17.30;1.00;;;;;;5055878;28;20765;-72
2023/03/30 12:42:53;;;;;;;12.70;3.10;;;17.00;1.00;;;;;;5059161;28;20194;-73
2023/03/30 12:45:31;;;;;;;8.93;2.60;;;16.50;1.00;;;;;;5056409;28;20199;-73
2023/03/30 12:48:28;;;;;;;10.25;3.17;;;16.30;1.00;;;;;;5059592;28;20211;-72
2023/03/30 12:51:10;;;;;;;10.13;2.97;;;16.10;1.00;;;;;;5058888;28;20215;-73
2023/03/30 12:54:14;;;;;;;8.68;2.97;;;16.30;1.00;;;;;;5057299;28;20261;-73
2023/03/30 12:56:54;;;;;;;13.95;3.60;;;16.70;1.00;;;;;;5057140;28;20207;-73
2023/03/30 12:59:35;;;;;;;10.52;3.30;;;16.80;1.00;;;;;;5055030;28;21135;-72
2023/03/30 13:02:14;;;;;;;11.10;2.90;;;16.80;1.00;;;;;;5100993;28;20286;-71
2023/03/30 13:04:45;;;;;;;11.65;3.15;;;17.40;1.00;;;;;;5080192;28;20200;-72
2023/03/30 13:07:14;;;;;;;6.93;2.40;;;17.90;1.00;;;;;;5089823;28;20284;-72
2023/03/30 13:09:52;;;;;;;10.13;2.55;;;18.50;1.00;;;;;;5086306;28;20202;-72
2023/03/30 13:12:40;;;;;;;11.65;2.90;;;18.70;1.00;;;;;;5080627;28;20198;-75
2023/03/30 13:15:28;;;;;;;8.20;2.55;;;18.00;1.00;;;;;;5089993;28;20613;-72
2023/03/30 13:17:55;;;;;;;6.97;2.42;;;17.30;1.00;;;;;;5107557;28;20268;-72
2023/03/30 13:20:46;;;;;;;9.57;2.47;;;17.20;1.00;;;;;;5089954;28;20212;-74
2023/03/30 13:23:13;;;;;;;7.28;2.70;;;17.50;1.00;;;;;;5052531;28;20198;-72
2023/03/30 13:25:53;;;;;;;9.02;2.92;;;17.60;1.00;;;;;;5080946;28;20620;-72
2023/03/30 13:28:50;;;;;;;7.07;2.40;;;17.10;1.00;;;;;;5080116;28;20205;-74
2023/03/30 13:31:49;;;;;;;7.18;2.72;;;16.40;1.00;;;;;;5081970;28;20208;-72
2023/03/30 13:34:30;;;;;;;5.43;2.47;;;15.60;1.00;;;;;;5093282;28;20202;-77
2023/03/30 13:37:20;;;;;;;12.25;3.00;;;15.50;1.00;;;;;;5102442;28;20231;-72
2023/03/30 13:40:07;;;;;;;7.43;2.25;;;15.10;1.00;;;;;;5079383;28;20201;-71
2023/03/30 13:42:58;;;;;;;7.35;1.92;;;14.70;1.00;;;;;;5091138;28;20197;-73
2023/03/30 13:45:31;;;;;;;6.03;1.58;;;14.30;1.00;;;;;;5096370;28;20294;-73
2023/03/30 13:48:13;;;;;;;8.57;2.60;;;14.00;1.00;;;;;;5086890;28;20279;-72